Time;durP1;ratioP1;P1;durP2;ratioP2;P2;SDS_P1;SDS_P2;PMS_P1;PMS_P2;Temp;Humidity;BMP_temperature;BMP_pressure;BME280_temperature;BME280_humidity;BME280_pressure;Samples;Min_cycle;Max_cycle;Signal;HPM_P1;HPM_P2
2023/10/21 00:01:05;;;;;;;2.35;1.17;;;21.50;64.30;;;;;;5052744;28;19920;-69
2023/10/21 00:03:31;;;;;;;;;;;21.50;64.90;;;;;;5054056;28;20040;-69
2023/10/21 00:05:57;;;;;;;0.45;0.38;;;21.50;64.50;;;;;;5052837;28;19928;-69
2023/10/21 00:08:23;;;;;;;;;;;21.40;64.60;;;;;;5052487;28;20551;-69
2023/10/21 00:11:02;;;;;;;0.30;0.30;;;21.50;64.20;;;;;;5052489;28;19927;-69
2023/10/21 00:13:28;;;;;;;2.72;0.82;;;21.50;64.30;;;;;;5051965;28;20048;-69
2023/10/21 00:15:54;;;;;;;;;;;21.40;64.60;;;;;;5053463;28;20042;-68
2023/10/21 00:18:20;;;;;;;0.35;0.32;;;21.40;64.00;;;;;;5053182;28;19999;-69
2023/10/21 00:20:46;;;;;;;;;;;21.40;64.60;;;;;;5051353;28;20414;-69
2023/10/21 00:23:12;;;;;;;0.25;0.25;;;21.40;64.30;;;;;;5052996;28;19913;-69
2023/10/21 00:25:38;;;;;;;;;;;21.30;64.90;;;;;;5051813;28;20036;-69
2023/10/21 00:28:04;;;;;;;14.25;1.33;;;21.30;64.70;;;;;;5052919;28;20445;-69
2023/10/21 00:30:31;;;;;;;2.17;1.00;;;21.20;66.20;;;;;;5050797;28;20128;-69
2023/10/21 00:32:57;;;;;;;0.60;0.45;;;21.20;66.80;;;;;;5051690;28;20033;-69
2023/10/21 00:35:23;;;;;;;;;;;21.10;66.80;;;;;;5051649;28;20535;-69
2023/10/21 00:37:49;;;;;;;3.80;1.33;;;21.10;66.20;;;;;;5051518;28;19927;-69
2023/10/21 00:40:14;;;;;;;;;;;21.10;66.80;;;;;;5051313;28;20481;-69
2023/10/21 00:42:40;;;;;;;2.22;0.88;;;21.00;67.20;;;;;;5052662;28;19917;-69
2023/10/21 00:45:08;;;;;;;3.20;1.55;;;21.00;67.80;;;;;;5052593;28;20033;-69
2023/10/21 00:47:34;;;;;;;0.43;0.40;;;20.90;67.70;;;;;;5052361;28;20061;-69
2023/10/21 00:50:03;;;;;;;0.90;0.68;;;20.90;68.90;;;;;;5051533;28;20036;-69
2023/10/21 00:52:30;;;;;;;0.32;0.28;;;20.90;69.20;;;;;;5051839;28;20053;-69
2023/10/21 00:54:59;;;;;;;0.32;0.32;;;20.80;69.90;;;;;;5052488;28;20032;-69
2023/10/21 00:57:26;;;;;;;0.75;0.63;;;20.80;70.60;;;;;;5052650;28;20041;-68
2023/10/21 00:59:53;;;;;;;0.98;0.82;;;20.70;71.20;;;;;;5052579;28;20025;-69
2023/10/21 01:02:19;;;;;;;2.60;0.98;;;20.60;71.70;;;;;;5050512;28;20053;-69
2023/10/21 01:04:45;;;;;;;;;;;20.60;71.90;;;;;;5053024;28;20033;-69
2023/10/21 01:07:34;;;;;;;0.35;0.28;;;20.50;71.90;;;;;;5052026;28;19928;-69
2023/10/21 01:10:03;;;;;;;0.73;0.25;;;20.40;71.70;;;;;;5052507;28;20033;-69
2023/10/21 01:12:30;;;;;;;0.43;0.20;;;20.40;72.20;;;;;;5052104;28;20040;-69
2023/10/21 01:14:56;;;;;;;0.73;0.25;;;20.20;71.90;;;;;;5052424;28;20055;-69
2023/10/21 01:17:22;;;;;;;0.17;0.17;;;20.10;72.90;;;;;;5051679;28;20087;-69
2023/10/21 01:19:49;;;;;;;0.30;0.30;;;20.00;73.80;;;;;;5051046;28;20421;-68
2023/10/21 01:22:15;;;;;;;0.45;0.40;;;19.90;73.90;;;;;;5051597;28;20087;-68
2023/10/21 01:24:41;;;;;;;0.10;0.10;;;19.80;74.30;;;;;;5054821;28;20025;-69
2023/10/21 01:27:07;;;;;;;2.65;0.73;;;19.70;73.90;;;;;;5056200;28;20037;-69
2023/10/21 01:29:33;;;;;;;;;;;19.70;74.60;;;;;;5055849;28;20036;-68
2023/10/21 01:32:00;;;;;;;0.63;0.50;;;19.60;74.30;;;;;;5055733;28;19921;-68
2023/10/21 01:34:26;;;;;;;0.30;0.22;;;19.60;75.80;;;;;;5038310;28;20021;-69
2023/10/21 01:36:52;;;;;;;0.32;0.30;;;19.50;75.20;;;;;;5054349;28;20051;-69
2023/10/21 01:39:18;;;;;;;1.27;0.68;;;19.50;75.30;;;;;;5055205;28;20061;-69
2023/10/21 01:41:44;;;;;;;;;;;19.50;75.60;;;;;;5054527;28;20091;-68
2023/10/21 01:44:10;;;;;;;0.82;0.45;;;19.50;75.40;;;;;;5055981;28;19916;-69
2023/10/21 01:49:24;;;;;;;0.20;0.20;;;19.40;75.70;;;;;;5056481;28;20091;-69
2023/10/21 01:51:50;;;;;;;0.35;0.20;;;19.40;75.60;;;;;;5053661;28;20126;-69
2023/10/21 01:54:16;;;;;;;0.22;0.22;;;19.40;75.40;;;;;;5054665;28;20389;-69
2023/10/21 01:56:42;;;;;;;4.60;1.23;;;19.40;75.70;;;;;;5055689;28;20249;-69
2023/10/21 01:59:08;;;;;;;0.10;0.10;;;19.30;76.20;;;;;;5055972;28;20065;-69
2023/10/21 02:01:34;;;;;;;1.45;1.08;;;19.30;76.50;;;;;;5055130;28;20044;-68
2023/10/21 02:04:00;;;;;;;0.10;0.10;;;19.20;76.90;;;;;;5055843;28;20037;-69
2023/10/21 02:06:26;;;;;;;;;;;19.20;77.80;;;;;;5055616;28;20114;-69
2023/10/21 02:09:12;;;;;;;0.20;0.20;;;19.10;77.00;;;;;;5055634;28;20011;-69
2023/10/21 02:11:38;;;;;;;2.08;0.50;;;19.10;77.60;;;;;;5054864;28;20390;-69
2023/10/21 02:14:04;;;;;;;0.10;0.10;;;19.10;77.60;;;;;;5055603;28;20033;-69
2023/10/21 02:16:30;;;;;;;;;;;19.00;77.80;;;;;;5054339;28;20478;-68
2023/10/21 02:18:56;;;;;;;0.10;0.10;;;19.00;77.70;;;;;;5055542;28;20000;-69
2023/10/21 02:21:22;;;;;;;1.65;0.20;;;19.00;77.80;;;;;;5053376;28;20030;-69
2023/10/21 02:23:48;;;;;;;0.10;0.10;;;19.00;78.00;;;;;;5055318;28;20115;-69
2023/10/21 02:26:14;;;;;;;0.22;0.20;;;18.90;78.20;;;;;;5053805;28;20044;-69
2023/10/21 02:28:40;;;;;;;3.30;0.45;;;18.90;78.20;;;;;;5054031;28;20032;-69
2023/10/21 02:31:06;;;;;;;0.17;0.17;;;18.90;78.30;;;;;;5054525;28;20040;-69
2023/10/21 02:33:33;;;;;;;0.75;0.22;;;18.90;78.00;;;;;;5055175;28;20049;-69
2023/10/21 02:35:59;;;;;;;4.00;0.20;;;18.90;78.00;;;;;;5054408;28;20112;-68
2023/10/21 02:38:25;;;;;;;1.38;0.65;;;18.90;78.30;;;;;;5055106;28;20041;-69
2023/10/21 02:40:51;;;;;;;0.10;0.10;;;18.90;78.30;;;;;;5054131;28;20037;-69
2023/10/21 02:43:17;;;;;;;0.38;0.20;;;18.90;78.30;;;;;;5054000;28;20497;-69
2023/10/21 02:45:43;;;;;;;0.20;0.20;;;18.90;78.20;;;;;;5053296;28;20044;-69
2023/10/21 02:48:09;;;;;;;;;;;18.90;78.10;;;;;;5055408;28;20057;-69
2023/10/21 02:50:35;;;;;;;0.00;0.00;;;18.90;77.80;;;;;;5054021;28;19960;-69
2023/10/21 02:53:01;;;;;;;3.22;0.80;;;18.80;77.70;;;;;;5054732;28;20045;-69
2023/10/21 02:55:27;;;;;;;0.47;0.30;;;18.80;78.00;;;;;;5053243;28;20099;-69
2023/10/21 02:57:53;;;;;;;0.10;0.10;;;18.80;77.60;;;;;;5055013;28;20386;-69
2023/10/21 03:00:21;;;;;;;0.00;0.00;;;18.80;78.30;;;;;;5054000;28;20029;-69
2023/10/21 03:05:34;;;;;;;1.00;0.65;;;18.80;77.50;;;;;;5052975;28;20095;-69
2023/10/21 03:08:00;;;;;;;0.10;0.10;;;18.80;78.00;;;;;;5054444;28;20095;-69
2023/10/21 03:10:26;;;;;;;0.10;0.10;;;18.80;78.20;;;;;;5052546;28;20047;-69
2023/10/21 03:12:52;;;;;;;0.10;0.10;;;18.70;78.50;;;;;;5053256;28;20044;-69
2023/10/21 03:15:18;;;;;;;0.10;0.10;;;18.60;78.70;;;;;;5054066;28;20091;-69
2023/10/21 03:17:44;;;;;;;0.10;0.10;;;18.60;78.90;;;;;;5054139;28;20453;-69
2023/10/21 03:20:11;;;;;;;0.10;0.10;;;18.60;78.90;;;;;;5052230;28;20029;-69
2023/10/21 03:22:37;;;;;;;0.10;0.10;;;18.50;78.20;;;;;;5053318;28;20442;-69
2023/10/21 03:25:05;;;;;;;0.10;0.10;;;18.60;78.80;;;;;;5053079;28;20417;-68
2023/10/21 03:27:32;;;;;;;0.45;0.45;;;18.50;78.50;;;;;;5052813;28;20029;-69
2023/10/21 03:29:58;;;;;;;0.20;0.20;;;18.50;79.40;;;;;;5053036;28;20036;-69
2023/10/21 03:32:24;;;;;;;0.10;0.10;;;18.50;79.40;;;;;;5052212;28;20037;-68
2023/10/21 03:34:50;;;;;;;0.10;0.10;;;18.50;79.70;;;;;;5053913;28;20060;-69
2023/10/21 03:37:16;;;;;;;0.35;0.28;;;18.50;79.90;;;;;;5053768;28;20067;-69
2023/10/21 03:39:42;;;;;;;1.95;0.50;;;18.40;80.20;;;;;;5053997;28;20450;-69
2023/10/21 03:42:08;;;;;;;;;;;18.40;80.00;;;;;;5052179;28;20033;-69
2023/10/21 03:44:34;;;;;;;0.10;0.10;;;18.30;79.80;;;;;;5053972;28;19917;-69
2023/10/21 03:47:00;;;;;;;2.72;0.82;;;18.30;80.00;;;;;;5051396;28;20033;-69
2023/10/21 03:49:26;;;;;;;0.10;0.10;;;18.20;81.30;;;;;;5054006;28;20103;-69
2023/10/21 03:51:52;;;;;;;0.15;0.15;;;18.10;80.60;;;;;;5051366;28;20053;-69
2023/10/21 03:54:18;;;;;;;0.17;0.17;;;18.10;80.90;;;;;;5052469;28;20036;-69
2023/10/21 03:56:44;;;;;;;1.85;1.02;;;18.10;81.00;;;;;;5053259;28;20091;-68
2023/10/21 03:59:10;;;;;;;0.10;0.10;;;18.10;82.10;;;;;;5053795;28;20044;-69
2023/10/21 04:01:36;;;;;;;0.95;0.65;;;18.00;81.00;;;;;;5052701;28;20513;-69
2023/10/21 04:04:02;;;;;;;;;;;18.00;81.20;;;;;;5053149;28;20425;-69
2023/10/21 04:06:28;;;;;;;0.10;0.10;;;17.90;81.30;;;;;;5052863;28;20019;-69
2023/10/21 04:08:54;;;;;;;1.55;0.98;;;17.90;81.80;;;;;;5052134;28;20033;-69
2023/10/21 04:11:21;;;;;;;0.10;0.10;;;17.80;81.80;;;;;;5052625;28;20041;-69
2023/10/21 04:13:47;;;;;;;0.05;0.05;;;17.80;82.10;;;;;;5053316;28;20057;-69
2023/10/21 04:16:13;;;;;;;0.10;0.10;;;17.80;82.20;;;;;;5053055;28;20041;-69
2023/10/21 04:18:39;;;;;;;0.10;0.10;;;17.70;82.40;;;;;;5053186;28;20037;-69
2023/10/21 04:21:05;;;;;;;0.10;0.10;;;17.70;82.40;;;;;;5052405;28;20060;-69
2023/10/21 04:23:31;;;;;;;1.17;0.38;;;17.60;82.30;;;;;;5053167;28;20025;-69
2023/10/21 04:25:57;;;;;;;0.10;0.10;;;17.50;82.30;;;;;;5052849;28;20099;-69
2023/10/21 04:28:23;;;;;;;0.10;0.10;;;17.50;82.40;;;;;;5053072;28;20045;-69
2023/10/21 04:30:49;;;;;;;1.98;0.77;;;17.50;82.30;;;;;;5051914;28;20040;-69
2023/10/21 04:33:15;;;;;;;0.20;0.20;;;17.50;82.10;;;;;;5051829;28;20036;-69
2023/10/21 04:35:41;;;;;;;0.17;0.10;;;17.50;82.00;;;;;;5050802;28;20044;-69
2023/10/21 04:38:26;;;;;;;0.65;0.20;;;17.50;81.80;;;;;;5052741;28;20037;-69
2023/10/21 04:40:53;;;;;;;0.10;0.10;;;17.50;81.90;;;;;;5052099;28;20482;-69
2023/10/21 04:43:19;;;;;;;1.35;0.85;;;17.50;81.70;;;;;;5052935;28;20451;-69
2023/10/21 04:45:45;;;;;;;0.52;0.38;;;17.40;81.40;;;;;;5050895;28;20043;-69
2023/10/21 04:48:11;;;;;;;0.10;0.10;;;17.50;81.40;;;;;;5052561;28;20040;-69
2023/10/21 04:50:37;;;;;;;0.00;0.00;;;17.50;81.20;;;;;;5051907;28;20546;-69
2023/10/21 04:53:03;;;;;;;0.28;0.10;;;17.50;81.20;;;;;;5052804;28;20061;-69
2023/10/21 04:55:29;;;;;;;;;;;17.50;81.10;;;;;;5051375;28;20029;-69
2023/10/21 04:57:55;;;;;;;0.10;0.10;;;17.50;80.90;;;;;;5051970;28;19912;-69
2023/10/21 05:00:21;;;;;;;0.10;0.10;;;17.40;80.80;;;;;;5051459;28;20033;-69
2023/10/21 05:02:47;;;;;;;0.30;0.20;;;17.50;81.00;;;;;;5052512;28;20045;-69
2023/10/21 05:05:13;;;;;;;2.50;0.15;;;17.50;80.80;;;;;;5052015;28;20048;-69
2023/10/21 05:07:40;;;;;;;1.85;0.85;;;17.40;80.70;;;;;;5051134;28;20098;-69
2023/10/21 05:10:06;;;;;;;0.20;0.20;;;17.40;80.60;;;;;;5050698;28;20041;-69
2023/10/21 05:12:32;;;;;;;0.20;0.17;;;17.40;80.00;;;;;;5052727;28;20111;-69
2023/10/21 05:14:58;;;;;;;1.55;0.98;;;17.40;80.80;;;;;;5051265;28;20029;-69
2023/10/21 05:17:24;;;;;;;0.35;0.20;;;17.40;80.60;;;;;;5052255;28;20039;-69
2023/10/21 05:19:50;;;;;;;0.47;0.35;;;17.30;80.60;;;;;;5052425;28;20041;-69
2023/10/21 05:22:16;;;;;;;0.85;0.73;;;17.30;80.60;;;;;;5050162;28;20083;-69
2023/10/21 05:24:42;;;;;;;0.57;0.47;;;17.30;80.50;;;;;;5051027;28;20033;-69
2023/10/21 05:27:09;;;;;;;2.20;1.65;;;17.30;80.60;;;;;;5033801;28;20118;-69
2023/10/21 05:29:35;;;;;;;2.67;1.77;;;17.20;80.30;;;;;;5052433;28;20516;-69
2023/10/21 05:32:01;;;;;;;2.47;1.25;;;17.20;80.30;;;;;;5051552;28;20053;-69
2023/10/21 05:34:27;;;;;;;2.65;1.38;;;17.20;80.50;;;;;;5052150;28;20037;-69
2023/10/21 05:36:53;;;;;;;0.10;0.10;;;17.20;80.60;;;;;;5050118;28;20056;-69
2023/10/21 05:39:19;;;;;;;0.10;0.10;;;17.10;80.50;;;;;;5051034;28;20024;-69
2023/10/21 05:41:45;;;;;;;1.23;0.63;;;17.10;80.60;;;;;;5051374;28;20033;-69
2023/10/21 05:44:11;;;;;;;0.10;0.10;;;17.10;80.70;;;;;;5052201;28;20033;-69
2023/10/21 05:46:37;;;;;;;0.20;0.20;;;17.10;80.40;;;;;;5051668;28;20053;-69
2023/10/21 05:49:04;;;;;;;0.10;0.10;;;17.10;80.20;;;;;;5052089;28;20036;-69
2023/10/21 05:51:30;;;;;;;0.20;0.10;;;17.10;80.00;;;;;;5051066;28;20136;-69
2023/10/21 05:53:57;;;;;;;0.50;0.50;;;17.10;80.10;;;;;;5052040;28;20032;-69
2023/10/21 05:56:23;;;;;;;0.90;0.90;;;17.10;80.00;;;;;;5050494;28;20055;-69
2023/10/21 05:58:50;;;;;;;0.10;0.10;;;17.10;79.80;;;;;;5050604;28;20081;-69
2023/10/21 06:01:16;;;;;;;0.35;0.17;;;17.10;79.50;;;;;;5049936;28;20062;-69
2023/10/21 06:03:42;;;;;;;;;;;17.10;79.40;;;;;;5052489;28;20021;-69
2023/10/21 06:06:08;;;;;;;13.25;2.25;;;17.10;79.30;;;;;;5050093;28;19974;-69
2023/10/21 06:08:34;;;;;;;2.17;1.50;;;17.10;79.40;;;;;;5034133;28;20443;-68
2023/10/21 06:11:00;;;;;;;5.22;2.83;;;17.10;79.60;;;;;;5053897;28;20041;-69
2023/10/21 06:13:26;;;;;;;3.72;1.48;;;17.10;79.60;;;;;;5055657;28;20481;-69
2023/10/21 06:15:52;;;;;;;0.20;0.20;;;17.10;79.50;;;;;;5054982;28;20113;-69
2023/10/21 06:18:20;;;;;;;0.30;0.28;;;17.20;79.40;;;;;;5054378;28;20032;-69
2023/10/21 06:21:06;;;;;;;0.57;0.40;;;17.20;78.80;;;;;;5053160;28;20044;-69
2023/10/21 06:23:32;;;;;;;1.65;0.65;;;17.20;79.30;;;;;;5057595;28;20029;-69
2023/10/21 06:25:58;;;;;;;0.70;0.43;;;17.30;79.40;;;;;;5075087;28;20361;-69
2023/10/21 06:28:23;;;;;;;;;;;17.30;79.50;;;;;;5068987;28;20060;-69
2023/10/21 06:30:50;;;;;;;0.52;0.10;;;17.30;79.30;;;;;;5052913;28;19927;-69
2023/10/21 06:33:16;;;;;;;3.60;1.70;;;17.40;78.50;;;;;;5055289;28;20049;-69
2023/10/21 06:35:42;;;;;;;3.63;2.15;;;17.40;79.30;;;;;;5052985;28;20396;-69
2023/10/21 06:38:08;;;;;;;2.15;1.23;;;17.40;79.30;;;;;;5074360;28;20454;-69
2023/10/21 06:40:35;;;;;;;;;;;17.50;79.50;;;;;;5070844;28;20044;-69
2023/10/21 06:43:01;;;;;;;1.63;0.98;;;17.50;79.00;;;;;;5055128;28;19958;-69
2023/10/21 06:45:27;;;;;;;0.10;0.10;;;17.60;79.00;;;;;;5053274;28;20094;-69
2023/10/21 06:47:53;;;;;;;;;;;17.60;79.00;;;;;;5055174;28;20115;-69
2023/10/21 06:50:19;;;;;;;0.65;0.43;;;17.70;78.90;;;;;;5038508;28;20406;-69
2023/10/21 06:52:45;;;;;;;0.60;0.55;;;17.70;78.90;;;;;;5056750;28;20052;-69
2023/10/21 06:55:11;;;;;;;0.70;0.28;;;17.80;78.90;;;;;;5073877;28;20037;-69
2023/10/21 06:57:37;;;;;;;1.27;0.93;;;17.90;79.10;;;;;;5075272;28;20040;-69
2023/10/21 07:00:05;;;;;;;0.15;0.15;;;18.00;79.00;;;;;;5074176;28;20113;-69
2023/10/21 07:02:32;;;;;;;1.80;1.13;;;18.10;78.30;;;;;;5054262;28;20056;-69
2023/10/21 07:04:58;;;;;;;1.15;0.60;;;18.20;78.90;;;;;;5036897;28;20386;-69
2023/10/21 07:07:24;;;;;;;0.40;0.40;;;18.20;78.60;;;;;;5054321;28;20037;-69
2023/10/21 07:09:50;;;;;;;0.55;0.43;;;18.30;78.70;;;;;;5036132;28;20486;-69
2023/10/21 07:12:16;;;;;;;;;;;18.40;78.70;;;;;;5052544;28;20044;-69
2023/10/21 07:14:42;;;;;;;0.10;0.10;;;18.50;78.60;;;;;;5036635;28;19914;-69
2023/10/21 07:17:08;;;;;;;;;;;18.50;78.60;;;;;;5054562;28;20091;-69
2023/10/21 07:19:34;;;;;;;0.13;0.13;;;18.50;78.60;;;;;;5053029;28;20007;-69
2023/10/21 07:22:01;;;;;;;0.20;0.20;;;18.60;78.40;;;;;;5068756;28;20424;-69
2023/10/21 07:24:27;;;;;;;;;;;18.60;78.60;;;;;;5074767;28;20112;-69
2023/10/21 07:26:53;;;;;;;0.15;0.15;;;18.70;78.60;;;;;;5072522;28;19926;-69
2023/10/21 07:29:19;;;;;;;0.20;0.20;;;18.70;78.40;;;;;;5063629;28;20029;-69
2023/10/21 07:31:45;;;;;;;0.10;0.10;;;18.80;78.50;;;;;;5053472;28;20118;-69
2023/10/21 07:34:11;;;;;;;0.20;0.20;;;18.90;78.60;;;;;;5052652;28;20033;-69
2023/10/21 07:36:38;;;;;;;0.35;0.30;;;18.90;78.50;;;;;;5035487;28;20061;-69
2023/10/21 07:41:50;;;;;;;0.17;0.10;;;19.00;78.00;;;;;;5053135;28;20119;-69
2023/10/21 07:44:16;;;;;;;0.52;0.50;;;19.10;78.50;;;;;;5053882;28;20490;-69
2023/10/21 07:46:42;;;;;;;0.32;0.32;;;19.10;78.50;;;;;;5052072;28;20047;-69
2023/10/21 07:49:08;;;;;;;0.35;0.35;;;19.10;78.40;;;;;;5052721;28;20092;-69
2023/10/21 07:51:34;;;;;;;0.63;0.40;;;19.20;78.20;;;;;;5051482;28;20109;-69
2023/10/21 07:54:00;;;;;;;0.35;0.20;;;19.30;78.10;;;;;;5052256;28;20029;-69
2023/10/21 07:56:26;;;;;;;;;;;19.40;77.70;;;;;;5052488;28;20040;-69
2023/10/21 07:58:52;;;;;;;0.93;0.45;;;19.50;77.80;;;;;;5053685;28;20358;-69
2023/10/21 08:01:19;;;;;;;0.55;0.55;;;19.60;77.60;;;;;;5052805;28;20037;-69
2023/10/21 08:03:45;;;;;;;0.47;0.20;;;20.40;75.60;;;;;;5052092;28;20120;-69
2023/10/21 08:06:11;;;;;;;;;;;22.30;69.10;;;;;;5053173;28;20084;-69
2023/10/21 08:08:37;;;;;;;1.00;0.60;;;23.80;65.80;;;;;;5052003;28;20026;-69
2023/10/21 08:11:03;;;;;;;;;;;24.80;60.90;;;;;;5051682;28;20033;-69
2023/10/21 08:13:30;;;;;;;2.13;0.85;;;24.50;63.10;;;;;;5052293;28;19912;-69
2023/10/21 08:15:56;;;;;;;0.50;0.50;;;23.80;63.10;;;;;;5052603;28;20425;-69
2023/10/21 08:18:25;;;;;;;0.43;0.28;;;23.10;65.30;;;;;;5053237;28;20106;-69
2023/10/21 08:20:51;;;;;;;0.10;0.10;;;23.10;66.20;;;;;;5030909;28;20036;-69
2023/10/21 08:23:17;;;;;;;;;;;23.30;65.50;;;;;;5032663;28;20037;-69
2023/10/21 08:25:43;;;;;;;0.20;0.20;;;23.60;65.60;;;;;;5032788;28;20354;-69
2023/10/21 08:28:10;;;;;;;0.20;0.20;;;23.50;63.70;;;;;;5031907;28;20116;-69
2023/10/21 08:30:36;;;;;;;0.50;0.40;;;23.30;64.60;;;;;;5036703;28;20033;-69
2023/10/21 08:33:05;;;;;;;0.73;0.35;;;23.10;65.00;;;;;;5052744;28;20437;-69
2023/10/21 08:35:33;;;;;;;0.10;0.08;;;23.20;65.00;;;;;;5052191;28;20029;-69
2023/10/21 08:37:59;;;;;;;0.20;0.20;;;23.40;63.90;;;;;;5051739;28;20469;-69
2023/10/21 08:40:25;;;;;;;1.65;1.38;;;23.40;63.80;;;;;;5050717;28;20051;-69
2023/10/21 08:42:52;;;;;;;0.88;0.52;;;23.20;64.30;;;;;;5052781;28;20040;-69
2023/10/21 08:45:19;;;;;;;0.52;0.52;;;23.10;64.50;;;;;;5052199;28;20033;-69
2023/10/21 08:47:45;;;;;;;1.00;0.55;;;23.00;64.20;;;;;;5052594;28;20405;-69
2023/10/21 08:50:15;;;;;;;1.95;1.23;;;22.80;64.90;;;;;;5050758;28;20074;-69
2023/10/21 08:52:43;;;;;;;0.22;0.22;;;22.70;65.00;;;;;;5052768;28;20044;-69
2023/10/21 08:55:10;;;;;;;0.30;0.30;;;22.60;64.90;;;;;;5051072;28;20033;-69
2023/10/21 08:57:36;;;;;;;0.25;0.20;;;22.60;65.20;;;;;;5052719;28;20083;-69
2023/10/21 09:00:05;;;;;;;;;;;22.60;65.30;;;;;;5051269;28;20051;-69
2023/10/21 09:02:31;;;;;;;1.40;0.35;;;22.60;64.80;;;;;;5052689;28;19988;-69
2023/10/21 09:04:57;;;;;;;;;;;22.70;64.30;;;;;;5051865;28;20037;-69
2023/10/21 09:07:23;;;;;;;0.20;0.20;;;22.80;64.50;;;;;;5052261;28;20007;-69
2023/10/21 09:09:49;;;;;;;0.28;0.10;;;22.80;64.20;;;;;;5052473;28;20088;-69
2023/10/21 09:12:14;;;;;;;;;;;22.80;64.10;;;;;;5052107;28;20078;-69
2023/10/21 09:14:59;;;;;;;0.43;0.30;;;22.80;64.00;;;;;;5050923;28;20003;-69
2023/10/21 09:17:36;;;;;;;1.33;0.40;;;22.90;63.60;;;;;;5050493;28;20048;-69
2023/10/21 09:20:17;;;;;;;0.73;0.50;;;22.90;63.60;;;;;;5051327;28;20037;-69
2023/10/21 09:22:49;;;;;;;0.20;0.20;;;22.90;63.40;;;;;;5050826;28;20037;-69
2023/10/21 09:25:35;;;;;;;0.68;0.50;;;23.00;62.80;;;;;;5050663;28;20032;-69
2023/10/21 09:28:01;;;;;;;0.52;0.38;;;23.20;62.30;;;;;;5050882;28;20033;-69
2023/10/21 09:30:29;;;;;;;0.43;0.25;;;23.40;62.00;;;;;;5033531;28;20053;-69
2023/10/21 09:33:14;;;;;;;0.85;0.70;;;23.40;61.70;;;;;;5052275;28;20037;-69
2023/10/21 09:35:40;;;;;;;0.88;0.68;;;23.40;61.40;;;;;;5051279;28;20441;-69
2023/10/21 09:38:25;;;;;;;0.13;0.13;;;23.40;61.70;;;;;;5052143;28;20029;-70
2023/10/21 09:40:51;;;;;;;0.57;0.38;;;23.40;62.20;;;;;;5033258;28;20129;-69
2023/10/21 09:43:20;;;;;;;0.68;0.68;;;23.40;62.10;;;;;;5052046;28;20079;-69
2023/10/21 09:45:49;;;;;;;1.38;0.45;;;23.40;62.50;;;;;;5036113;28;20033;-69
2023/10/21 09:48:16;;;;;;;0.55;0.30;;;23.30;62.90;;;;;;5054499;28;20128;-69
2023/10/21 09:50:49;;;;;;;0.20;0.20;;;23.20;63.00;;;;;;5053969;28;20451;-69
2023/10/21 09:53:22;;;;;;;0.52;0.30;;;23.20;63.00;;;;;;5054970;28;20490;-69
2023/10/21 09:55:49;;;;;;;0.20;0.20;;;23.20;63.30;;;;;;5054300;28;20033;-69
2023/10/21 09:58:17;;;;;;;0.40;0.30;;;23.20;63.10;;;;;;5054801;28;20065;-69
2023/10/21 10:00:46;;;;;;;1.13;0.43;;;23.10;63.70;;;;;;5053683;28;20124;-69
2023/10/21 10:03:14;;;;;;;0.65;0.47;;;23.10;63.70;;;;;;5054723;28;20029;-69
2023/10/21 10:05:41;;;;;;;0.40;0.40;;;23.20;63.70;;;;;;5037282;28;20037;-69
2023/10/21 10:08:08;;;;;;;1.83;0.60;;;23.20;63.50;;;;;;5055640;28;20116;-70
2023/10/21 10:10:38;;;;;;;9.63;0.82;;;23.20;63.40;;;;;;5054688;28;20413;-69
2023/10/21 10:13:09;;;;;;;0.75;0.63;;;23.30;63.40;;;;;;5055607;28;20131;-69
2023/10/21 10:15:55;;;;;;;0.65;0.38;;;23.40;63.00;;;;;;5054124;28;20063;-68
2023/10/21 10:18:22;;;;;;;0.20;0.20;;;23.40;62.80;;;;;;5037588;28;20511;-70
2023/10/21 10:20:50;;;;;;;0.10;0.10;;;23.50;62.70;;;;;;5036568;28;20131;-69
2023/10/21 10:23:19;;;;;;;0.20;0.10;;;23.60;62.30;;;;;;5038325;28;20174;-69
2023/10/21 10:25:51;;;;;;;2.10;0.75;;;23.70;62.10;;;;;;5073168;28;20470;-69
2023/10/21 10:28:20;;;;;;;0.98;0.60;;;23.70;62.00;;;;;;5073860;28;20086;-69
2023/10/21 10:30:52;;;;;;;0.38;0.20;;;23.70;62.10;;;;;;5074320;28;20550;-69
2023/10/21 10:33:28;;;;;;;1.38;0.40;;;23.70;62.00;;;;;;5074240;28;20071;-69
2023/10/21 10:35:56;;;;;;;0.45;0.35;;;23.70;62.30;;;;;;5073321;28;20387;-69
2023/10/21 10:38:34;;;;;;;0.50;0.50;;;23.70;61.90;;;;;;5057306;28;20541;-69
2023/10/21 10:41:15;;;;;;;0.40;0.40;;;23.80;61.90;;;;;;5072832;28;20037;-68
2023/10/21 10:44:05;;;;;;;0.20;0.20;;;23.90;61.70;;;;;;5074085;28;20040;-69
2023/10/21 10:46:36;;;;;;;0.22;0.17;;;23.90;61.20;;;;;;5073181;28;20108;-69
2023/10/21 10:49:05;;;;;;;0.13;0.13;;;24.00;60.90;;;;;;5074908;28;20040;-70
2023/10/21 10:51:43;;;;;;;2.08;0.45;;;24.00;60.60;;;;;;5074041;28;20048;-69
2023/10/21 10:54:15;;;;;;;0.47;0.20;;;24.10;60.60;;;;;;5073730;28;20029;-69
2023/10/21 10:56:50;;;;;;;3.63;0.32;;;24.10;60.20;;;;;;5060440;28;20041;-69
2023/10/21 11:02:03;;;;;;;0.25;0.22;;;24.50;59.00;;;;;;5055325;28;20033;-69
2023/10/21 11:04:32;;;;;;;0.20;0.20;;;24.70;59.00;;;;;;5074392;28;20075;-69
2023/10/21 11:06:58;;;;;;;0.17;0.17;;;24.80;58.40;;;;;;5055008;28;20417;-69
2023/10/21 11:09:30;;;;;;;0.10;0.10;;;24.80;58.10;;;;;;5073372;28;20087;-69
2023/10/21 11:11:57;;;;;;;0.40;0.30;;;24.80;57.20;;;;;;5073621;28;20097;-69
2023/10/21 11:14:24;;;;;;;0.20;0.20;;;24.90;56.50;;;;;;5074565;28;20029;-69
2023/10/21 11:16:51;;;;;;;0.22;0.22;;;25.10;56.90;;;;;;5074020;28;20043;-69
2023/10/21 11:19:17;;;;;;;0.57;0.22;;;25.30;55.90;;;;;;5073256;28;20520;-69
2023/10/21 11:21:48;;;;;;;0.80;0.57;;;25.30;55.20;;;;;;5073548;28;20036;-69
2023/10/21 11:24:15;;;;;;;0.30;0.20;;;25.20;54.90;;;;;;5073340;28;20085;-69
2023/10/21 11:26:42;;;;;;;0.13;0.10;;;25.10;55.50;;;;;;5072382;28;20481;-69
2023/10/21 11:29:08;;;;;;;0.20;0.20;;;25.00;55.50;;;;;;5072923;28;20038;-69
2023/10/21 11:31:35;;;;;;;2.55;0.68;;;25.00;55.50;;;;;;5072112;28;20078;-69
2023/10/21 11:34:21;;;;;;;0.28;0.28;;;25.00;55.70;;;;;;5072841;28;20401;-69
2023/10/21 11:36:50;;;;;;;0.43;0.30;;;25.10;55.80;;;;;;5072071;28;20028;-69
2023/10/21 11:39:18;;;;;;;0.55;0.45;;;25.00;55.30;;;;;;5072864;28;20064;-69
2023/10/21 11:41:45;;;;;;;3.97;0.90;;;24.80;52.40;;;;;;5071763;28;20036;-69
2023/10/21 11:44:30;;;;;;;0.77;0.50;;;24.40;53.70;;;;;;5072684;28;20098;-69
2023/10/21 11:46:58;;;;;;;0.10;0.10;;;24.20;55.30;;;;;;5071811;28;20036;-69
2023/10/21 11:49:26;;;;;;;1.23;0.68;;;24.10;55.10;;;;;;5072691;28;20025;-69
2023/10/21 11:51:54;;;;;;;0.17;0.17;;;24.00;55.10;;;;;;5072608;28;20102;-69
2023/10/21 11:54:40;;;;;;;1.13;0.90;;;24.00;55.30;;;;;;5073859;28;20028;-70
2023/10/21 12:40:31;;;;;;;0.28;0.28;;;22.40;61.80;;;;;;5070960;28;20647;-69
2023/10/21 12:46:17;;;;;;;0.30;0.10;;;22.30;62.20;;;;;;5071552;28;20041;-69
2023/10/21 12:48:47;;;;;;;0.50;0.50;;;22.20;62.30;;;;;;5071629;28;20032;-69
2023/10/21 12:51:16;;;;;;;0.10;0.10;;;22.20;62.60;;;;;;5070475;28;20037;-69
2023/10/21 12:53:43;;;;;;;0.22;0.22;;;22.20;62.80;;;;;;5071519;28;20060;-69
2023/10/21 12:56:10;;;;;;;0.47;0.30;;;22.20;63.10;;;;;;5071045;28;20068;-69
2023/10/21 12:58:39;;;;;;;0.35;0.28;;;22.20;63.30;;;;;;5038431;28;20106;-70
2023/10/21 13:01:09;;;;;;;0.20;0.20;;;22.30;63.50;;;;;;5053723;28;20037;-68
2023/10/21 13:03:37;;;;;;;0.65;0.45;;;22.20;62.60;;;;;;5071461;28;20108;-69
2023/10/21 13:08:51;;;;;;;0.00;0.00;;;22.20;62.60;;;;;;5071623;28;20578;-69
2023/10/21 13:11:18;;;;;;;0.20;0.20;;;22.30;63.20;;;;;;5061424;28;20521;-70
2023/10/21 13:13:45;;;;;;;0.55;0.30;;;22.20;63.20;;;;;;5051156;28;20083;-69
2023/10/21 13:16:11;;;;;;;0.50;0.45;;;22.20;63.10;;;;;;5050707;28;20044;-69
2023/10/21 13:18:37;;;;;;;;;;;22.20;63.20;;;;;;5051636;28;20036;-69
2023/10/21 13:21:06;;;;;;;0.63;0.63;;;22.20;63.00;;;;;;5059361;28;19920;-69
2023/10/21 13:23:36;;;;;;;0.20;0.17;;;22.10;63.00;;;;;;5071164;28;20074;-69
2023/10/21 13:26:06;;;;;;;0.10;0.10;;;22.00;63.10;;;;;;5070947;28;20120;-69
2023/10/21 13:28:35;;;;;;;0.10;0.10;;;22.00;63.50;;;;;;5072184;28;20071;-70
2023/10/21 13:31:02;;;;;;;0.25;0.25;;;21.90;63.50;;;;;;5070028;28;20119;-69
2023/10/21 13:33:28;;;;;;;1.45;0.40;;;21.80;63.70;;;;;;5071109;28;20040;-69
2023/10/21 13:35:54;;;;;;;0.98;0.60;;;21.80;63.90;;;;;;5070471;28;20512;-69
2023/10/21 13:38:21;;;;;;;;;;;21.80;64.10;;;;;;5073020;28;20024;-69
2023/10/21 13:40:50;;;;;;;0.95;0.30;;;21.80;63.80;;;;;;5063825;28;19969;-70
2023/10/21 13:43:17;;;;;;;0.70;0.47;;;21.70;64.40;;;;;;5051032;28;20473;-69
2023/10/21 13:45:44;;;;;;;0.47;0.30;;;21.60;64.60;;;;;;5050344;28;20037;-69
2023/10/21 13:50:56;;;;;;;2.08;1.20;;;21.60;65.10;;;;;;5058427;28;20048;-69
2023/10/21 13:53:25;;;;;;;;;;;21.50;65.40;;;;;;5072831;28;20047;-69
2023/10/21 13:55:53;;;;;;;1.73;1.33;;;21.50;65.30;;;;;;5071535;28;19916;-69
2023/10/21 13:58:20;;;;;;;3.03;0.70;;;21.40;65.70;;;;;;5070548;28;20025;-69
2023/10/21 14:00:46;;;;;;;1.77;1.63;;;21.40;66.00;;;;;;5063639;28;20444;-69